sensor_id;sensor_type;location;lat;lon;timestamp;pressure;altitude;pressure_sealevel;temperature;humidity
71384;BME280;67558;52.166;5.004;2023-03-04T00:00:07;102802.97;;;7.95;57.92
71384;BME280;67558;52.166;5.004;2023-03-04T00:02:32;102812.03;;;8.01;58.00
71384;BME280;67558;52.166;5.004;2023-03-04T00:04:58;102814.69;;;8.01;57.96
71384;BME280;67558;52.166;5.004;2023-03-04T00:07:23;102811.38;;;7.92;58.15
71384;BME280;67558;52.166;5.004;2023-03-04T00:09:48;102808.50;;;7.87;57.98
71384;BME280;67558;52.166;5.004;2023-03-04T00:12:14;102819.34;;;7.86;58.37
71384;BME280;67558;52.166;5.004;2023-03-04T00:14:40;102814.22;;;7.91;58.36
71384;BME280;67558;52.166;5.004;2023-03-04T00:17:05;102813.00;;;7.93;57.92
71384;BME280;67558;52.166;5.004;2023-03-04T00:19:31;102818.31;;;7.93;58.21
71384;BME280;67558;52.166;5.004;2023-03-04T00:21:56;102818.53;;;7.85;58.54
71384;BME280;67558;52.166;5.004;2023-03-04T00:24:21;102813.59;;;7.89;58.25
71384;BME280;67558;52.166;5.004;2023-03-04T00:26:49;102818.53;;;7.92;58.30
71384;BME280;67558;52.166;5.004;2023-03-04T00:29:14;102825.13;;;7.96;58.14
71384;BME280;67558;52.166;5.004;2023-03-04T00:31:39;102827.16;;;7.94;58.38
71384;BME280;67558;52.166;5.004;2023-03-04T00:34:05;102811.56;;;7.91;58.22
71384;BME280;67558;52.166;5.004;2023-03-04T00:36:30;102814.22;;;7.91;58.08
71384;BME280;67558;52.166;5.004;2023-03-04T00:38:55;102828.19;;;7.93;57.96
71384;BME280;67558;52.166;5.004;2023-03-04T00:41:21;102821.41;;;7.90;58.26
71384;BME280;67558;52.166;5.004;2023-03-04T00:43:46;102813.84;;;7.94;58.35
71384;BME280;67558;52.166;5.004;2023-03-04T00:46:11;102814.84;;;7.93;58.09
71384;BME280;67558;52.166;5.004;2023-03-04T00:48:37;102816.50;;;7.94;58.46
71384;BME280;67558;52.166;5.004;2023-03-04T00:51:03;102825.94;;;7.96;58.03
71384;BME280;67558;52.166;5.004;2023-03-04T00:53:28;102825.94;;;7.96;58.33
71384;BME280;67558;52.166;5.004;2023-03-04T00:55:53;102821.84;;;7.94;58.37
71384;BME280;67558;52.166;5.004;2023-03-04T00:58:19;102820.59;;;7.90;58.05
71384;BME280;67558;52.166;5.004;2023-03-04T01:00:44;102817.03;;;7.83;57.85
71384;BME280;67558;52.166;5.004;2023-03-04T01:03:10;102825.03;;;7.83;57.32
71384;BME280;67558;52.166;5.004;2023-03-04T01:05:36;102806.56;;;7.74;57.62
71384;BME280;67558;52.166;5.004;2023-03-04T01:08:02;102818.47;;;7.78;57.81
71384;BME280;67558;52.166;5.004;2023-03-04T01:10:27;102823.78;;;7.78;57.55
71384;BME280;67558;52.166;5.004;2023-03-04T01:12:54;102810.03;;;7.68;57.62
71384;BME280;67558;52.166;5.004;2023-03-04T01:15:20;102824.22;;;7.82;57.43
71384;BME280;67558;52.166;5.004;2023-03-04T01:17:45;102810.28;;;7.80;57.49
71384;BME280;67558;52.166;5.004;2023-03-04T01:20:11;102800.22;;;7.75;57.26
71384;BME280;67558;52.166;5.004;2023-03-04T01:22:36;102816.84;;;7.84;57.23
71384;BME280;67558;52.166;5.004;2023-03-04T01:25:02;102819.34;;;7.86;57.56
71384;BME280;67558;52.166;5.004;2023-03-04T01:27:28;102805.75;;;7.80;57.58
71384;BME280;67558;52.166;5.004;2023-03-04T01:29:53;102811.75;;;7.89;57.44
71384;BME280;67558;52.166;5.004;2023-03-04T01:32:19;102809.72;;;7.91;57.71
71384;BME280;67558;52.166;5.004;2023-03-04T01:34:44;102807.88;;;7.92;57.83
71384;BME280;67558;52.166;5.004;2023-03-04T01:37:10;102796.38;;;7.91;57.80
71384;BME280;67558;52.166;5.004;2023-03-04T01:39:37;102801.31;;;7.88;57.74
71384;BME280;67558;52.166;5.004;2023-03-04T01:42:03;102796.78;;;7.88;57.62
71384;BME280;67558;52.166;5.004;2023-03-04T01:44:28;102781.56;;;7.75;57.87
71384;BME280;67558;52.166;5.004;2023-03-04T01:46:54;102779.34;;;7.79;57.78
71384;BME280;67558;52.166;5.004;2023-03-04T01:49:20;102788.59;;;7.83;57.72
71384;BME280;67558;52.166;5.004;2023-03-04T01:51:51;102787.13;;;7.80;57.18
71384;BME280;67558;52.166;5.004;2023-03-04T01:54:17;102780.34;;;7.78;56.94
71384;BME280;67558;52.166;5.004;2023-03-04T01:56:44;102778.25;;;7.67;57.25
71384;BME280;67558;52.166;5.004;2023-03-04T01:59:30;102781.56;;;7.75;56.97
71384;BME280;67558;52.166;5.004;2023-03-04T02:01:58;102770.72;;;7.77;56.97
71384;BME280;67558;52.166;5.004;2023-03-04T02:04:26;102761.06;;;7.76;56.96
71384;BME280;67558;52.166;5.004;2023-03-04T02:06:53;102760.25;;;7.75;57.05
71384;BME280;67558;52.166;5.004;2023-03-04T02:09:20;102760.69;;;7.79;57.01
71384;BME280;67558;52.166;5.004;2023-03-04T02:11:46;102759.84;;;7.78;56.89
71384;BME280;67558;52.166;5.004;2023-03-04T02:14:14;102747.34;;;7.72;57.07
71384;BME280;67558;52.166;5.004;2023-03-04T02:16:40;102756.19;;;7.79;57.14
71384;BME280;67558;52.166;5.004;2023-03-04T02:20:13;102752.88;;;7.77;56.86
71384;BME280;67558;52.166;5.004;2023-03-04T02:22:11;102745.06;;;7.69;57.12
71384;BME280;67558;52.166;5.004;2023-03-04T02:25:05;102758.16;;;7.64;56.98
71384;BME280;67558;52.166;5.004;2023-03-04T02:27:31;102728.41;;;7.54;56.70
71384;BME280;67558;52.166;5.004;2023-03-04T02:29:57;102738.47;;;7.65;56.66
71384;BME280;67558;52.166;5.004;2023-03-04T02:32:22;102737.44;;;7.59;56.88
71384;BME280;67558;52.166;5.004;2023-03-04T02:34:49;102746.28;;;7.67;56.46
71384;BME280;67558;52.166;5.004;2023-03-04T02:37:16;102738.06;;;7.62;56.75
71384;BME280;67558;52.166;5.004;2023-03-04T02:39:44;102736.63;;;7.66;56.40
71384;BME280;67558;52.166;5.004;2023-03-04T02:42:11;102733.78;;;7.67;56.62
71384;BME280;67558;52.166;5.004;2023-03-04T02:44:39;102730.50;;;7.65;56.93
71384;BME280;67558;52.166;5.004;2023-03-04T02:47:07;102724.97;;;7.67;57.01
71384;BME280;67558;52.166;5.004;2023-03-04T02:49:35;102712.44;;;7.61;56.99
71384;BME280;67558;52.166;5.004;2023-03-04T02:54:28;102710.63;;;7.68;56.91
71384;BME280;67558;52.166;5.004;2023-03-04T02:56:56;102711.84;;;7.65;56.98
71384;BME280;67558;52.166;5.004;2023-03-04T02:59:22;102708.56;;;7.63;57.01
71384;BME280;67558;52.166;5.004;2023-03-04T03:01:48;102719.84;;;7.65;57.27
71384;BME280;67558;52.166;5.004;2023-03-04T03:04:13;102700.34;;;7.58;56.94
71384;BME280;67558;52.166;5.004;2023-03-04T03:06:39;102718.84;;;7.73;57.20
71384;BME280;67558;52.166;5.004;2023-03-04T03:09:05;102717.19;;;7.72;56.85
71384;BME280;67558;52.166;5.004;2023-03-04T03:11:31;102712.31;;;7.75;57.02
71384;BME280;67558;52.166;5.004;2023-03-04T03:13:56;102706.97;;;7.75;57.08
71384;BME280;67558;52.166;5.004;2023-03-04T03:16:22;102707.75;;;7.69;57.17
71384;BME280;67558;52.166;5.004;2023-03-04T03:18:47;102706.34;;;7.73;57.26
71384;BME280;67558;52.166;5.004;2023-03-04T03:21:13;102705.94;;;7.76;57.15
71384;BME280;67558;52.166;5.004;2023-03-04T03:23:38;102703.28;;;7.76;57.11
71384;BME280;67558;52.166;5.004;2023-03-04T03:26:04;102707.19;;;7.80;57.22
71384;BME280;67558;52.166;5.004;2023-03-04T03:28:30;102700.84;;;7.75;57.49
71384;BME280;67558;52.166;5.004;2023-03-04T03:30:56;102687.69;;;7.67;57.54
71384;BME280;67558;52.166;5.004;2023-03-04T03:33:21;102696.09;;;7.70;57.37
71384;BME280;67558;52.166;5.004;2023-03-04T03:35:47;102701.66;;;7.75;57.50
71384;BME280;67558;52.166;5.004;2023-03-04T03:38:12;102695.91;;;7.78;57.77
71384;BME280;67558;52.166;5.004;2023-03-04T03:40:37;102697.13;;;7.69;57.61
71384;BME280;67558;52.166;5.004;2023-03-04T03:43:03;102700.41;;;7.71;57.85
71384;BME280;67558;52.166;5.004;2023-03-04T03:45:28;102693.03;;;7.73;57.66
71384;BME280;67558;52.166;5.004;2023-03-04T03:47:53;102696.09;;;7.70;57.80
71384;BME280;67558;52.166;5.004;2023-03-04T03:50:19;102690.53;;;7.65;58.23
71384;BME280;67558;52.166;5.004;2023-03-04T03:52:44;102700.22;;;7.73;57.89
71384;BME280;67558;52.166;5.004;2023-03-04T03:55:09;102698.78;;;7.70;57.73
71384;BME280;67558;52.166;5.004;2023-03-04T03:57:35;102701.44;;;7.70;57.84
71384;BME280;67558;52.166;5.004;2023-03-04T04:00:00;102702.25;;;7.71;57.86
71384;BME280;67558;52.166;5.004;2023-03-04T04:02:26;102692.41;;;7.71;57.84
71384;BME280;67558;52.166;5.004;2023-03-04T04:04:51;102699.41;;;7.72;57.80
71384;BME280;67558;52.166;5.004;2023-03-04T04:07:16;102702.06;;;7.72;57.96
71384;BME280;67558;52.166;5.004;2023-03-04T04:09:42;102703.69;;;7.73;57.99
71384;BME280;67558;52.166;5.004;2023-03-04T04:12:07;102706.53;;;7.72;58.56
71384;BME280;67558;52.166;5.004;2023-03-04T04:14:33;102706.34;;;7.73;58.36
71384;BME280;67558;52.166;5.004;2023-03-04T04:16:59;102710.88;;;7.73;58.23
71384;BME280;67558;52.166;5.004;2023-03-04T04:19:24;102711.06;;;7.71;58.51
71384;BME280;67558;52.166;5.004;2023-03-04T04:21:49;102706.13;;;7.68;58.77
71384;BME280;67558;52.166;5.004;2023-03-04T04:24:15;102709.81;;;7.67;58.67
71384;BME280;67558;52.166;5.004;2023-03-04T04:26:41;102710.00;;;7.66;59.02
71384;BME280;67558;52.166;5.004;2023-03-04T04:29:07;102715.13;;;7.67;59.15
71384;BME280;67558;52.166;5.004;2023-03-04T04:31:32;102656.63;;;7.32;59.15
71384;BME280;67558;52.166;5.004;2023-03-04T04:33:58;102703.66;;;7.60;59.74
71384;BME280;67558;52.166;5.004;2023-03-04T04:36:23;102700.34;;;7.58;59.22
71384;BME280;67558;52.166;5.004;2023-03-04T04:38:49;102711.00;;;7.58;59.48
71384;BME280;67558;52.166;5.004;2023-03-04T04:41:23;102708.34;;;7.58;60.13
71384;BME280;67558;52.166;5.004;2023-03-04T04:43:49;102702.41;;;7.63;59.57
71384;BME280;67558;52.166;5.004;2023-03-04T04:46:16;102706.94;;;7.62;59.72
71384;BME280;67558;52.166;5.004;2023-03-04T04:48:41;102709.81;;;7.67;59.82
71384;BME280;67558;52.166;5.004;2023-03-04T04:51:07;102705.50;;;7.66;59.88
71384;BME280;67558;52.166;5.004;2023-03-04T04:53:33;102706.50;;;7.65;59.94
71384;BME280;67558;52.166;5.004;2023-03-04T04:55:58;102700.81;;;7.68;59.75
71384;BME280;67558;52.166;5.004;2023-03-04T04:58:24;102707.13;;;7.67;59.93
71384;BME280;67558;52.166;5.004;2023-03-04T05:00:49;102701.63;;;7.69;59.52
71384;BME280;67558;52.166;5.004;2023-03-04T05:03:14;102701.81;;;7.67;59.75
71384;BME280;67558;52.166;5.004;2023-03-04T05:05:40;102696.91;;;7.71;59.48
71384;BME280;67558;52.166;5.004;2023-03-04T05:08:05;102702.69;;;7.74;59.39
71384;BME280;67558;52.166;5.004;2023-03-04T05:10:30;102698.78;;;7.77;59.13
71384;BME280;67558;52.166;5.004;2023-03-04T05:12:56;102701.66;;;7.75;59.56
71384;BME280;67558;52.166;5.004;2023-03-04T05:15:21;102703.28;;;7.76;59.53
71384;BME280;67558;52.166;5.004;2023-03-04T05:17:47;102683.78;;;7.63;59.15
71384;BME280;67558;52.166;5.004;2023-03-04T05:20:12;102695.06;;;7.71;59.17
71384;BME280;67558;52.166;5.004;2023-03-04T05:22:38;102704.50;;;7.74;59.00
71384;BME280;67558;52.166;5.004;2023-03-04T05:25:04;102708.59;;;7.76;59.54
71384;BME280;67558;52.166;5.004;2023-03-04T05:27:31;102706.97;;;7.75;59.21
71384;BME280;67558;52.166;5.004;2023-03-04T05:29:56;102712.31;;;7.75;59.57
71384;BME280;67558;52.166;5.004;2023-03-04T05:32:24;102716.38;;;7.71;59.65
71384;BME280;67558;52.166;5.004;2023-03-04T05:34:50;102716.38;;;7.71;60.05
71384;BME280;67558;52.166;5.004;2023-03-04T05:37:15;102721.28;;;7.68;60.38
71384;BME280;67558;52.166;5.004;2023-03-04T05:39:40;102714.13;;;7.68;60.52
71384;BME280;67558;52.166;5.004;2023-03-04T05:42:06;102717.41;;;7.64;61.07
71384;BME280;67558;52.166;5.004;2023-03-04T05:44:31;102715.72;;;7.56;61.68
71384;BME280;67558;52.166;5.004;2023-03-04T05:46:56;102712.00;;;7.57;62.07
71384;BME280;67558;52.166;5.004;2023-03-04T05:49:22;102715.28;;;7.59;61.81
71384;BME280;67558;52.166;5.004;2023-03-04T05:51:47;102714.66;;;7.57;62.39
71384;BME280;67558;52.166;5.004;2023-03-04T05:54:13;102718.81;;;7.59;62.04
71384;BME280;67558;52.166;5.004;2023-03-04T05:56:38;102718.59;;;7.61;62.56
71384;BME280;67558;52.166;5.004;2023-03-04T05:59:03;102710.59;;;7.61;62.33
71384;BME280;67558;52.166;5.004;2023-03-04T06:01:29;102711.44;;;7.62;62.26
71384;BME280;67558;52.166;5.004;2023-03-04T06:03:55;102712.44;;;7.61;62.67
71384;BME280;67558;52.166;5.004;2023-03-04T06:06:21;102673.84;;;7.36;62.35
71384;BME280;67558;52.166;5.004;2023-03-04T06:08:46;102717.78;;;7.67;62.70
71384;BME280;67558;52.166;5.004;2023-03-04T06:11:11;102715.50;;;7.51;63.32
71384;BME280;67558;52.166;5.004;2023-03-04T06:13:37;102711.34;;;7.48;63.30
71384;BME280;67558;52.166;5.004;2023-03-04T06:16:03;102714.03;;;7.48;63.41
71384;BME280;67558;52.166;5.004;2023-03-04T06:18:28;102705.03;;;7.49;63.62
71384;BME280;67558;52.166;5.004;2023-03-04T06:21:01;102703.78;;;7.45;63.72
71384;BME280;67558;52.166;5.004;2023-03-04T06:23:27;102710.16;;;7.51;63.77
71384;BME280;67558;52.166;5.004;2023-03-04T06:25:54;102704.88;;;7.64;63.49
71384;BME280;67558;52.166;5.004;2023-03-04T06:28:20;102713.91;;;7.70;63.23
71384;BME280;67558;52.166;5.004;2023-03-04T06:30:45;102705.72;;;7.71;63.10
71384;BME280;67558;52.166;5.004;2023-03-04T06:33:11;102702.88;;;7.73;63.18
71384;BME280;67558;52.166;5.004;2023-03-04T06:35:36;102699.16;;;7.67;63.15
71384;BME280;67558;52.166;5.004;2023-03-04T06:38:01;102715.59;;;7.77;62.84
71384;BME280;67558;52.166;5.004;2023-03-04T06:40:27;102713.94;;;7.76;62.88
71384;BME280;67558;52.166;5.004;2023-03-04T06:42:52;102711.47;;;7.68;63.18
71384;BME280;67558;52.166;5.004;2023-03-04T06:45:17;102715.72;;;7.63;63.07
71384;BME280;67558;52.166;5.004;2023-03-04T06:47:43;102709.16;;;7.58;63.59
71384;BME280;67558;52.166;5.004;2023-03-04T06:50:10;102703.22;;;7.56;63.21
71384;BME280;67558;52.166;5.004;2023-03-04T06:52:36;102711.22;;;7.63;63.55
71384;BME280;67558;52.166;5.004;2023-03-04T06:55:02;102721.09;;;7.69;63.04
71384;BME280;67558;52.166;5.004;2023-03-04T06:57:28;102722.13;;;7.68;63.45
71384;BME280;67558;52.166;5.004;2023-03-04T06:59:53;102723.16;;;7.74;63.39
71384;BME280;67558;52.166;5.004;2023-03-04T07:02:19;102721.72;;;7.71;63.30
71384;BME280;67558;52.166;5.004;2023-03-04T07:04:44;102718.25;;;7.77;63.28
71384;BME280;67558;52.166;5.004;2023-03-04T07:07:10;102719.88;;;7.72;63.23
71384;BME280;67558;52.166;5.004;2023-03-04T07:09:36;102728.31;;;7.82;63.39
71384;BME280;67558;52.166;5.004;2023-03-04T07:12:01;102729.72;;;7.78;63.35
71384;BME280;67558;52.166;5.004;2023-03-04T07:14:27;102734.44;;;7.83;63.11
71384;BME280;67558;52.166;5.004;2023-03-04T07:16:52;102728.50;;;7.80;63.66
71384;BME280;67558;52.166;5.004;2023-03-04T07:19:17;102729.53;;;7.79;63.96
71384;BME280;67558;52.166;5.004;2023-03-04T07:21:42;102726.69;;;7.81;63.66
71384;BME280;67558;52.166;5.004;2023-03-04T07:24:08;102727.69;;;7.87;63.88
71384;BME280;67558;52.166;5.004;2023-03-04T07:26:33;102717.66;;;7.89;63.98
71384;BME280;67558;52.166;5.004;2023-03-04T07:28:59;102733.69;;;8.02;64.03
71384;BME280;67558;52.166;5.004;2023-03-04T07:31:27;102738.22;;;8.08;63.79
71384;BME280;67558;52.166;5.004;2023-03-04T07:34:05;102731.66;;;8.11;64.04
71384;BME280;67558;52.166;5.004;2023-03-04T07:36:34;102733.53;;;8.17;63.62
71384;BME280;67558;52.166;5.004;2023-03-04T07:38:59;102734.16;;;8.26;63.77
71384;BME280;67558;52.166;5.004;2023-03-04T07:41:27;102740.34;;;8.33;63.72
71384;BME280;67558;52.166;5.004;2023-03-04T07:43:52;102726.78;;;8.28;63.93
71384;BME280;67558;52.166;5.004;2023-03-04T07:46:20;102730.34;;;8.55;63.25
71384;BME280;67558;52.166;5.004;2023-03-04T07:48:45;102741.22;;;8.67;63.00
71384;BME280;67558;52.166;5.004;2023-03-04T07:51:20;102735.47;;;8.70;62.52
71384;BME280;67558;52.166;5.004;2023-03-04T07:53:47;102739.56;;;8.79;62.38
71384;BME280;67558;52.166;5.004;2023-03-04T07:56:16;102748.81;;;8.83;62.55
71384;BME280;67558;52.166;5.004;2023-03-04T07:58:42;102743.06;;;8.99;62.34
71384;BME280;67558;52.166;5.004;2023-03-04T08:01:10;102749.81;;;9.09;62.03
71384;BME280;67558;52.166;5.004;2023-03-04T08:03:35;102748.38;;;9.13;62.03
71384;BME280;67558;52.166;5.004;2023-03-04T08:06:04;102742.00;;;9.14;61.71
71384;BME280;67558;52.166;5.004;2023-03-04T08:08:29;102746.09;;;9.23;61.21
71384;BME280;67558;52.166;5.004;2023-03-04T08:10:55;102748.16;;;9.28;61.21
71384;BME280;67558;52.166;5.004;2023-03-04T08:13:20;102747.72;;;9.31;60.98
71384;BME280;67558;52.166;5.004;2023-03-04T08:15:46;102751.63;;;9.35;60.93
71384;BME280;67558;52.166;5.004;2023-03-04T08:18:11;102744.41;;;9.35;60.78
71384;BME280;67558;52.166;5.004;2023-03-04T08:20:36;102749.34;;;9.38;60.57
71384;BME280;67558;52.166;5.004;2023-03-04T08:23:05;102761.03;;;9.44;60.58
71384;BME280;67558;52.166;5.004;2023-03-04T08:25:31;102756.53;;;9.45;60.43
71384;BME280;67558;52.166;5.004;2023-03-04T08:27:57;102747.28;;;9.40;60.34
71384;BME280;67558;52.166;5.004;2023-03-04T08:30:23;102737.63;;;9.39;60.33
71384;BME280;67558;52.166;5.004;2023-03-04T08:32:48;102759.19;;;9.51;60.29
71384;BME280;67558;52.166;5.004;2023-03-04T08:35:14;102760.19;;;9.57;60.10
71384;BME280;67558;52.166;5.004;2023-03-04T08:37:39;102767.34;;;9.63;59.97
71384;BME280;67558;52.166;5.004;2023-03-04T08:40:05;102764.28;;;9.66;59.96
71384;BME280;67558;52.166;5.004;2023-03-04T08:42:30;102757.88;;;9.67;59.87
71384;BME280;67558;52.166;5.004;2023-03-04T08:44:56;102747.84;;;9.62;59.85
71384;BME280;67558;52.166;5.004;2023-03-04T08:47:21;102761.78;;;9.71;59.98
71384;BME280;67558;52.166;5.004;2023-03-04T08:49:46;102767.72;;;9.73;59.93
71384;BME280;67558;52.166;5.004;2023-03-04T08:52:12;102756.41;;;9.78;60.10
71384;BME280;67558;52.166;5.004;2023-03-04T08:54:37;102757.41;;;9.83;60.16
71384;BME280;67558;52.166;5.004;2023-03-04T08:57:03;102756.97;;;9.87;60.00
71384;BME280;67558;52.166;5.004;2023-03-04T08:59:28;102750.38;;;9.89;60.01
71384;BME280;67558;52.166;5.004;2023-03-04T09:01:53;102755.53;;;9.91;59.87
71384;BME280;67558;52.166;5.004;2023-03-04T09:04:19;102749.38;;;9.90;60.00
71384;BME280;67558;52.166;5.004;2023-03-04T09:06:44;102755.69;;;9.96;60.11
71384;BME280;67558;52.166;5.004;2023-03-04T09:09:09;102758.38;;;9.96;60.25
71384;BME280;67558;52.166;5.004;2023-03-04T09:11:35;102753.22;;;10.01;60.28
71384;BME280;67558;52.166;5.004;2023-03-04T09:14:00;102746.41;;;10.05;60.33
71384;BME280;67558;52.166;5.004;2023-03-04T09:16:26;102730.19;;;10.00;60.39
71384;BME280;67558;52.166;5.004;2023-03-04T09:18:51;102752.13;;;10.15;60.36
71384;BME280;67558;52.166;5.004;2023-03-04T09:21:16;102741.44;;;10.15;60.37
71384;BME280;67558;52.166;5.004;2023-03-04T09:23:42;102747.75;;;10.21;60.64
71384;BME280;67558;52.166;5.004;2023-03-04T09:26:17;102739.53;;;10.22;60.77
71384;BME280;67558;52.166;5.004;2023-03-04T09:28:43;102739.13;;;10.19;60.87
71384;BME280;67558;52.166;5.004;2023-03-04T09:31:13;102758.25;;;10.22;60.72
71384;BME280;67558;52.166;5.004;2023-03-04T09:33:38;102748.56;;;10.21;60.71
71384;BME280;67558;52.166;5.004;2023-03-04T09:36:07;102748.16;;;10.24;60.96
71384;BME280;67558;52.166;5.004;2023-03-04T09:38:32;102738.25;;;10.25;61.07
71384;BME280;67558;52.166;5.004;2023-03-04T09:41:02;102748.56;;;10.21;61.39
71384;BME280;67558;52.166;5.004;2023-03-04T09:43:29;102750.22;;;10.22;61.44
71384;BME280;67558;52.166;5.004;2023-03-04T09:45:59;102737.50;;;10.18;61.34
71384;BME280;67558;52.166;5.004;2023-03-04T09:48:33;102736.28;;;10.14;61.39
71384;BME280;67558;52.166;5.004;2023-03-04T09:54:11;102745.38;;;10.06;62.50
71384;BME280;67558;52.166;5.004;2023-03-04T09:56:40;102730.78;;;10.02;62.48
71384;BME280;67558;52.166;5.004;2023-03-04T09:59:23;102741.22;;;10.10;63.25
71384;BME280;67558;52.166;5.004;2023-03-04T10:02:11;102722.72;;;10.09;63.11
71384;BME280;67558;52.166;5.004;2023-03-04T10:04:58;102734.78;;;10.24;62.90
71384;BME280;67558;52.166;5.004;2023-03-04T10:07:33;102720.59;;;10.24;62.54
71384;BME280;67558;52.166;5.004;2023-03-04T10:10:12;102736.94;;;10.41;62.34
71384;BME280;67558;52.166;5.004;2023-03-04T10:12:42;102731.13;;;10.51;62.23
71384;BME280;67558;52.166;5.004;2023-03-04T10:15:22;102723.66;;;10.59;61.85
71384;BME280;67558;52.166;5.004;2023-03-04T10:17:55;102727.69;;;10.69;61.50
71384;BME280;67558;52.166;5.004;2023-03-04T10:20:30;102720.19;;;10.77;61.26
71384;BME280;67558;52.166;5.004;2023-03-04T10:22:59;102710.84;;;10.86;60.88
71384;BME280;67558;52.166;5.004;2023-03-04T10:25:30;102723.31;;;10.99;60.86
71384;BME280;67558;52.166;5.004;2023-03-04T10:27:58;102711.13;;;11.03;60.64
71384;BME280;67558;52.166;5.004;2023-03-04T10:33:33;102711.03;;;11.10;59.97
71384;BME280;67558;52.166;5.004;2023-03-04T10:38:32;102712.88;;;11.10;59.76
71384;BME280;67558;52.166;5.004;2023-03-04T10:40:59;102713.34;;;11.06;59.75
71384;BME280;67558;52.166;5.004;2023-03-04T10:43:26;102713.19;;;11.01;59.84
71384;BME280;67558;52.166;5.004;2023-03-04T10:45:56;102719.19;;;10.97;59.85
71384;BME280;67558;52.166;5.004;2023-03-04T10:48:25;102723.03;;;10.82;60.28
71384;BME280;67558;52.166;5.004;2023-03-04T10:50:53;102729.41;;;10.81;60.51
71384;BME280;67558;52.166;5.004;2023-03-04T10:53:39;102715.22;;;10.81;60.91
71384;BME280;67558;52.166;5.004;2023-03-04T10:59:38;102713.53;;;10.86;61.08
71384;BME280;67558;52.166;5.004;2023-03-04T11:05:22;102709.53;;;10.96;60.47
71384;BME280;67558;52.166;5.004;2023-03-04T11:10:19;102694.13;;;11.10;60.31
71384;BME280;67558;52.166;5.004;2023-03-04T11:15:23;102684.78;;;11.19;59.35
71384;BME280;67558;52.166;5.004;2023-03-04T11:18:11;102681.50;;;11.17;59.53
71384;BME280;67558;52.166;5.004;2023-03-04T11:20:40;102684.00;;;11.12;59.71
71384;BME280;67558;52.166;5.004;2023-03-04T11:23:13;102685.81;;;10.99;59.78
71384;BME280;67558;52.166;5.004;2023-03-04T11:25:47;102689.25;;;10.81;60.18
71384;BME280;67558;52.166;5.004;2023-03-04T11:28:48;102692.28;;;10.66;60.89
71384;BME280;67558;52.166;5.004;2023-03-04T11:31:23;102717.41;;;10.40;62.17
71384;BME280;67558;52.166;5.004;2023-03-04T11:33:57;102717.94;;;10.17;63.79
71384;BME280;67558;52.166;5.004;2023-03-04T11:36:42;102700.59;;;9.95;64.54
71384;BME280;67558;52.166;5.004;2023-03-04T11:39:23;102704.13;;;9.89;63.99
71384;BME280;67558;52.166;5.004;2023-03-04T11:41:57;102702.13;;;9.77;64.66
71384;BME280;67558;52.166;5.004;2023-03-04T11:44:26;102695.38;;;9.75;64.43
71384;BME280;67558;52.166;5.004;2023-03-04T11:47:04;102691.84;;;9.74;64.98
71384;BME280;67558;52.166;5.004;2023-03-04T11:52:34;102683.59;;;9.82;65.44
71384;BME280;67558;52.166;5.004;2023-03-04T11:57:59;102678.81;;;9.91;65.29
71384;BME280;67558;52.166;5.004;2023-03-04T12:01:11;102678.97;;;10.03;65.38
71384;BME280;67558;52.166;5.004;2023-03-04T12:21:16;102671.28;;;9.81;66.10
71384;BME280;67558;52.166;5.004;2023-03-04T12:24:20;102683.22;;;9.79;67.24
71384;BME280;67558;52.166;5.004;2023-03-04T12:29:43;102680.97;;;9.76;67.12
71384;BME280;67558;52.166;5.004;2023-03-04T12:37:59;102661.81;;;9.86;65.76
71384;BME280;67558;52.166;5.004;2023-03-04T12:40:35;102658.69;;;9.89;65.32
71384;BME280;67558;52.166;5.004;2023-03-04T12:43:26;102652.66;;;10.00;65.06
71384;BME280;67558;52.166;5.004;2023-03-04T12:51:51;102633.47;;;10.10;62.75
71384;BME280;67558;52.166;5.004;2023-03-04T12:56:57;102629.75;;;10.11;62.60
71384;BME280;67558;52.166;5.004;2023-03-04T12:59:25;102634.66;;;10.14;62.10
71384;BME280;67558;52.166;5.004;2023-03-04T13:04:52;102623.91;;;10.20;61.42
71384;BME280;67558;52.166;5.004;2023-03-04T13:07:47;102618.56;;;10.20;60.55
71384;BME280;67558;52.166;5.004;2023-03-04T13:10:19;102631.66;;;10.29;61.30
71384;BME280;67558;52.166;5.004;2023-03-04T13:18:00;102625.66;;;10.08;60.50
71384;BME280;67558;52.166;5.004;2023-03-04T13:23:35;102605.22;;;9.89;60.15
71384;BME280;67558;52.166;5.004;2023-03-04T13:28:31;102609.31;;;9.91;60.43
71384;BME280;67558;52.166;5.004;2023-03-04T13:43:44;102599.41;;;10.23;59.20
71384;BME280;67558;52.166;5.004;2023-03-04T13:59:37;102593.81;;;10.32;56.36
71384;BME280;67558;52.166;5.004;2023-03-04T14:02:18;102585.00;;;10.24;55.63
71384;BME280;67558;52.166;5.004;2023-03-04T14:04:59;102589.75;;;10.22;55.77
71384;BME280;67558;52.166;5.004;2023-03-04T14:07:35;102587.69;;;10.24;55.91
71384;BME280;67558;52.166;5.004;2023-03-04T14:12:54;102586.63;;;10.25;56.67
71384;BME280;67558;52.166;5.004;2023-03-04T14:15:32;102588.09;;;10.21;56.67
71384;BME280;67558;52.166;5.004;2023-03-04T14:18:19;102587.88;;;10.23;56.85
71384;BME280;67558;52.166;5.004;2023-03-04T14:20:50;102580.44;;;10.32;57.09
71384;BME280;67558;52.166;5.004;2023-03-04T14:23:31;102578.16;;;10.35;56.96
71384;BME280;67558;52.166;5.004;2023-03-04T14:26:25;102574.19;;;10.38;57.30
71384;BME280;67558;52.166;5.004;2023-03-04T14:28:52;102566.19;;;10.38;57.15
71384;BME280;67558;52.166;5.004;2023-03-04T14:31:23;102568.19;;;10.42;57.04
71384;BME280;67558;52.166;5.004;2023-03-04T14:33:52;102568.38;;;10.48;56.88
71384;BME280;67558;52.166;5.004;2023-03-04T14:36:42;102568.13;;;10.49;56.84
71384;BME280;67558;52.166;5.004;2023-03-04T14:39:17;102560.16;;;10.42;56.36
71384;BME280;67558;52.166;5.004;2023-03-04T14:41:48;102555.88;;;10.41;56.37
71384;BME280;67558;52.166;5.004;2023-03-04T14:44:35;102557.09;;;10.39;56.95
71384;BME280;67558;52.166;5.004;2023-03-04T14:49:43;102562.75;;;10.31;56.73
71384;BME280;67558;52.166;5.004;2023-03-04T14:55:21;102558.97;;;10.13;56.29